createdAt,value
2022-12-12T00:02:11.946Z,97.21
2022-12-12T00:04:58.332Z,96.82
2022-12-12T00:07:41.921Z,96.79
2022-12-12T00:10:26.653Z,96.44
2022-12-12T00:13:10.083Z,96.00
2022-12-12T00:15:54.399Z,96.64
2022-12-12T00:18:39.403Z,96.49
2022-12-12T00:21:27.205Z,95.91
2022-12-12T00:24:11.170Z,96.07
2022-12-12T00:26:54.622Z,97.05
2022-12-12T00:29:38.060Z,96.87
2022-12-12T00:32:21.755Z,96.79
2022-12-12T00:35:06.791Z,97.14
2022-12-12T00:37:51.467Z,97.58
2022-12-12T00:40:35.923Z,97.25
2022-12-12T00:43:19.439Z,97.77
2022-12-12T00:46:03.233Z,97.73
2022-12-12T00:48:47.238Z,97.62
2022-12-12T00:51:31.476Z,97.78
2022-12-12T00:54:15.111Z,97.72
2022-12-12T00:56:58.560Z,97.80
2022-12-12T00:59:42.033Z,98.12
2022-12-12T01:02:28.323Z,97.81
2022-12-12T01:05:12.943Z,97.88
2022-12-12T01:07:56.615Z,97.42
2022-12-12T01:10:40.307Z,97.47
2022-12-12T01:13:24.634Z,97.54
2022-12-12T01:16:09.133Z,97.38
2022-12-12T01:18:52.764Z,97.77
2022-12-12T01:21:37.441Z,98.06
2022-12-12T01:24:20.927Z,98.27
2022-12-12T01:27:04.378Z,98.45
2022-12-12T01:29:47.813Z,98.50
2022-12-12T01:32:31.335Z,98.40
2022-12-12T01:35:15.243Z,98.32
2022-12-12T01:37:58.913Z,97.31
2022-12-12T01:40:42.350Z,96.81
2022-12-12T01:43:26.034Z,97.35
2022-12-12T01:46:37.357Z,97.81
2022-12-12T01:49:27.493Z,97.59
2022-12-12T01:52:23.641Z,98.23
2022-12-12T01:55:15.607Z,98.76
2022-12-12T01:57:59.154Z,98.60
2022-12-12T02:00:46.314Z,98.12
2022-12-12T02:03:29.795Z,98.61
2022-12-12T02:06:23.261Z,98.94
2022-12-12T02:09:12.513Z,98.91
2022-12-12T02:11:58.860Z,99.11
2022-12-12T02:14:47.966Z,99.05
2022-12-12T02:18:35.507Z,99.16
2022-12-12T02:21:51.319Z,99.77
2022-12-12T02:24:52.736Z,99.92
2022-12-12T02:28:20.603Z,98.94
2022-12-12T02:31:43.337Z,98.36
2022-12-12T02:34:59.900Z,99.08
2022-12-12T02:38:15.457Z,98.65
2022-12-12T02:41:37.100Z,98.10
2022-12-12T02:44:32.321Z,98.82
2022-12-12T02:47:24.511Z,99.40
2022-12-12T02:50:16.381Z,99.42
2022-12-12T02:53:00.758Z,98.33
2022-12-12T02:55:44.646Z,98.29
2022-12-12T02:58:28.090Z,98.13
2022-12-12T03:01:35.821Z,97.91
2022-12-12T03:05:07.438Z,99.10
2022-12-12T03:08:21.692Z,97.84
2022-12-12T03:11:12.802Z,97.72
2022-12-12T03:14:15.857Z,97.32
2022-12-12T03:17:19.852Z,97.96
2022-12-12T03:20:37.280Z,98.79
2022-12-12T03:23:39.410Z,98.60
2022-12-12T03:26:39.475Z,97.71
2022-12-12T03:29:32.970Z,98.16
2022-12-12T03:33:02.738Z,98.09
2022-12-12T03:36:12.135Z,98.01
2022-12-12T03:39:13.692Z,98.51
2022-12-12T03:42:23.857Z,99.09
2022-12-12T03:45:27.674Z,99.79
2022-12-12T03:48:33.778Z,99.67
2022-12-12T03:51:32.850Z,100.00
2022-12-12T03:54:28.870Z,100.00
2022-12-12T03:57:25.146Z,100.00
2022-12-12T04:00:14.979Z,100.00
2022-12-12T04:03:29.832Z,100.00
2022-12-12T04:06:37.417Z,100.00
2022-12-12T04:09:40.844Z,100.00
2022-12-12T04:12:58.576Z,100.00
2022-12-12T04:15:51.971Z,100.00
2022-12-12T04:18:49.449Z,100.00
2022-12-12T04:22:16.695Z,100.00
2022-12-12T04:25:18.963Z,100.00
2022-12-12T04:28:07.639Z,100.00
2022-12-12T04:30:51.662Z,100.00
2022-12-12T04:33:45.912Z,100.00
2022-12-12T04:36:34.156Z,100.00
2022-12-12T04:39:21.674Z,100.00
2022-12-12T04:42:10.186Z,100.00
2022-12-12T04:45:03.465Z,100.00
2022-12-12T04:47:52.718Z,100.00
2022-12-12T04:50:39.288Z,99.92
2022-12-12T04:53:34.465Z,100.00
2022-12-12T04:56:27.043Z,100.00
2022-12-12T04:59:10.605Z,100.00
2022-12-12T05:02:12.491Z,100.00
2022-12-12T05:05:32.495Z,100.00
2022-12-12T05:08:39.641Z,100.00
2022-12-12T05:11:23.692Z,100.00
2022-12-12T05:14:11.475Z,100.00
2022-12-12T05:17:05.242Z,100.00
2022-12-12T05:19:48.753Z,100.00
2022-12-12T05:22:32.197Z,100.00
2022-12-12T05:25:16.111Z,100.00
2022-12-12T05:27:59.686Z,100.00
2022-12-12T05:30:43.170Z,100.00
2022-12-12T05:33:26.692Z,100.00
2022-12-12T05:36:10.977Z,100.00
2022-12-12T05:38:54.554Z,100.00
2022-12-12T05:41:37.989Z,100.00
2022-12-12T05:44:21.471Z,100.00
2022-12-12T05:47:04.892Z,99.75
2022-12-12T05:49:48.400Z,100.00
2022-12-12T05:52:32.085Z,99.79
2022-12-12T05:55:15.729Z,99.14
2022-12-12T05:57:59.345Z,99.23
2022-12-12T06:00:42.755Z,99.37
2022-12-12T06:03:26.336Z,99.05
2022-12-12T06:06:09.794Z,98.44
2022-12-12T06:08:53.220Z,98.03
2022-12-12T06:11:36.658Z,98.16
2022-12-12T06:14:20.198Z,97.76
2022-12-12T06:17:03.644Z,97.66
2022-12-12T06:19:47.062Z,97.33
2022-12-12T06:22:30.522Z,97.43
2022-12-12T06:25:14.589Z,97.40
2022-12-12T06:27:59.256Z,97.16
2022-12-12T06:30:42.852Z,97.20
2022-12-12T06:33:27.605Z,97.11
2022-12-12T06:36:23.940Z,96.97
2022-12-12T06:39:07.564Z,96.67
2022-12-12T06:41:51.060Z,96.62
2022-12-12T06:44:34.564Z,96.45
2022-12-12T06:47:18.042Z,97.03
2022-12-12T06:50:01.482Z,97.17
2022-12-12T06:52:44.956Z,97.01
2022-12-12T06:55:28.521Z,97.19
2022-12-12T06:58:12.013Z,97.37
2022-12-12T07:00:55.603Z,97.63
2022-12-12T07:03:39.604Z,97.78
2022-12-12T07:06:24.985Z,98.13
2022-12-12T07:09:09.081Z,98.34
2022-12-12T07:11:52.723Z,98.02
2022-12-12T07:14:40.086Z,98.59
2022-12-12T07:17:23.539Z,98.94
2022-12-12T07:20:07.931Z,98.72
2022-12-12T07:22:51.623Z,99.03
2022-12-12T07:25:39.351Z,98.62
2022-12-12T07:28:22.907Z,98.43
2022-12-12T07:31:10.011Z,98.46
2022-12-12T07:33:55.267Z,98.36
2022-12-12T07:36:38.973Z,98.05
2022-12-12T07:39:22.414Z,97.50
2022-12-12T07:42:05.848Z,98.04
2022-12-12T07:44:50.097Z,98.08
2022-12-12T07:47:33.746Z,98.32
2022-12-12T07:50:17.294Z,97.43
2022-12-12T07:53:00.683Z,97.02
2022-12-12T07:55:54.908Z,97.16
2022-12-12T07:58:39.084Z,97.09
2022-12-12T08:01:26.321Z,97.38
2022-12-12T08:04:09.889Z,97.56
2022-12-12T08:07:00.638Z,96.70
2022-12-12T08:09:46.366Z,96.19
2022-12-12T08:12:30.534Z,96.57
2022-12-12T08:15:18.283Z,96.35
2022-12-12T08:18:01.840Z,96.41
2022-12-12T08:20:46.398Z,95.74
2022-12-12T08:23:29.795Z,95.72
2022-12-12T08:26:17.194Z,96.25
2022-12-12T08:29:00.653Z,96.24
2022-12-12T08:31:44.235Z,95.77
2022-12-12T08:34:27.748Z,95.68
2022-12-12T08:37:11.216Z,95.44
2022-12-12T08:39:55.856Z,95.47
2022-12-12T08:42:39.682Z,95.59
2022-12-12T08:45:23.126Z,95.12
2022-12-12T08:48:07.796Z,95.25
2022-12-12T08:50:52.758Z,94.53
2022-12-12T08:53:36.489Z,94.96
2022-12-12T08:56:23.340Z,94.99
2022-12-12T08:59:07.168Z,94.73
2022-12-12T09:01:50.645Z,94.65
2022-12-12T09:04:34.915Z,94.64
2022-12-12T09:07:18.366Z,94.13
2022-12-12T09:10:02.162Z,93.72
2022-12-12T09:12:45.703Z,93.75
2022-12-12T09:15:29.278Z,93.50
2022-12-12T09:18:12.711Z,93.22
2022-12-12T09:20:58.857Z,92.88
2022-12-12T09:23:42.290Z,92.34
2022-12-12T09:26:25.813Z,91.64
2022-12-12T09:29:10.994Z,91.93
2022-12-12T09:31:54.449Z,91.90
2022-12-12T09:34:39.137Z,91.66
2022-12-12T09:37:22.587Z,91.34
2022-12-12T09:40:07.782Z,91.27
2022-12-12T09:42:51.916Z,90.36
2022-12-12T09:45:39.099Z,90.42
2022-12-12T09:48:42.382Z,90.61
2022-12-12T09:51:25.901Z,89.85
2022-12-12T09:54:15.163Z,89.28
2022-12-12T09:57:11.595Z,89.39
2022-12-12T10:00:09.528Z,90.18
2022-12-12T10:03:04.984Z,89.18
2022-12-12T10:09:52.439Z,88.86
2022-12-12T10:12:38.194Z,88.57
2022-12-12T10:16:04.916Z,87.58
2022-12-12T10:18:53.936Z,87.80
2022-12-12T10:21:42.967Z,87.55
2022-12-12T10:24:46.580Z,87.11
2022-12-12T10:27:30.447Z,87.30
2022-12-12T10:30:18.399Z,87.12
2022-12-12T10:33:25.578Z,86.67
2022-12-12T10:36:37.227Z,86.21
2022-12-12T10:40:08.195Z,85.97
2022-12-12T10:43:00.931Z,85.71
2022-12-12T10:46:10.574Z,85.70
2022-12-12T10:48:54.424Z,85.39
2022-12-12T10:51:37.974Z,85.08
2022-12-12T10:54:26.503Z,83.38
2022-12-12T10:57:24.622Z,83.25
2022-12-12T11:00:37.257Z,83.02
2022-12-12T11:03:38.194Z,82.13
2022-12-12T11:06:36.661Z,82.50
2022-12-12T11:09:30.461Z,81.94
2022-12-12T11:12:16.745Z,81.63
2022-12-12T11:15:17.140Z,79.72
2022-12-12T11:18:05.869Z,80.06
2022-12-12T11:21:00.274Z,78.23
2022-12-12T11:23:55.318Z,77.66
2022-12-12T11:26:55.783Z,75.91
2022-12-12T11:29:48.255Z,78.00
2022-12-12T11:32:44.149Z,78.51
2022-12-12T11:35:45.591Z,77.38
2022-12-12T11:38:47.751Z,77.63
2022-12-12T11:42:02.875Z,77.19
2022-12-12T11:44:56.344Z,77.52
2022-12-12T11:47:45.399Z,77.36
2022-12-12T11:50:30.552Z,77.50
2022-12-12T11:53:14.242Z,78.77
2022-12-12T11:56:36.412Z,79.16
2022-12-12T12:00:06.182Z,81.66
2022-12-12T12:03:20.902Z,81.96
2022-12-12T12:06:34.063Z,81.96
2022-12-12T12:09:42.276Z,83.14
2022-12-12T12:12:46.727Z,83.38
2022-12-12T12:15:35.770Z,83.49
2022-12-12T12:19:00.322Z,83.74
2022-12-12T12:21:59.069Z,83.86
2022-12-12T12:24:51.447Z,83.84
2022-12-12T12:28:12.524Z,83.95
2022-12-12T12:31:38.501Z,84.62
2022-12-12T12:35:12.565Z,84.12
2022-12-12T12:38:19.743Z,84.08
2022-12-12T12:41:49.060Z,84.35
2022-12-12T12:45:17.542Z,84.51
2022-12-12T12:48:17.198Z,84.86
2022-12-12T12:51:52.882Z,84.58
2022-12-12T12:54:45.698Z,84.41
2022-12-12T12:57:38.039Z,84.19
2022-12-12T13:00:27.668Z,83.00
2022-12-12T13:03:25.678Z,82.15
2022-12-12T13:06:36.868Z,81.45
2022-12-12T13:10:51.798Z,79.75
2022-12-12T13:27:06.077Z,78.44
2022-12-12T13:35:00.953Z,78.94
2022-12-12T13:37:51.907Z,78.56
2022-12-12T13:40:41.686Z,77.45
2022-12-12T13:43:33.911Z,78.21
2022-12-12T13:46:29.473Z,77.92
2022-12-12T13:57:31.962Z,77.47
2022-12-12T14:00:19.310Z,77.65
2022-12-12T14:03:11.838Z,77.20
2022-12-12T14:06:11.009Z,77.13
2022-12-12T14:08:54.903Z,76.76
2022-12-12T14:15:37.905Z,77.19
2022-12-12T14:18:30.123Z,77.10
2022-12-12T14:25:12.526Z,76.92
2022-12-12T14:28:04.581Z,76.67
2022-12-12T14:35:08.857Z,76.93
2022-12-12T14:38:29.155Z,77.54
2022-12-12T14:41:19.724Z,77.99
2022-12-12T14:44:34.923Z,78.81
2022-12-12T14:47:20.466Z,79.04
2022-12-12T14:50:16.570Z,79.52
2022-12-12T14:53:02.551Z,78.84
2022-12-12T15:01:31.462Z,79.97
2022-12-12T15:04:35.075Z,80.09
2022-12-12T15:07:34.331Z,80.93
2022-12-12T15:10:28.620Z,81.38
2022-12-12T15:13:20.994Z,81.81
2022-12-12T15:16:05.004Z,81.78
2022-12-12T15:18:49.078Z,82.01
2022-12-12T15:21:33.700Z,82.48
2022-12-12T15:24:28.228Z,82.68
2022-12-12T15:27:32.729Z,82.75
2022-12-12T15:30:40.311Z,82.63
2022-12-12T15:33:27.205Z,82.96
2022-12-12T15:36:28.235Z,82.88
2022-12-12T15:39:16.902Z,82.74
2022-12-12T15:42:00.541Z,83.28
2022-12-12T15:44:48.129Z,82.70
2022-12-12T15:47:31.815Z,82.67
2022-12-12T15:50:21.063Z,82.41
2022-12-12T15:53:29.271Z,82.32
2022-12-12T15:56:21.674Z,82.67
2022-12-12T15:59:05.026Z,82.90
2022-12-12T16:01:48.529Z,82.96
2022-12-12T16:04:31.975Z,82.69
2022-12-12T16:07:23.039Z,82.99
2022-12-12T16:10:19.969Z,83.10
2022-12-12T16:13:24.854Z,82.75
2022-12-12T16:16:45.544Z,82.51
2022-12-12T16:19:56.025Z,82.77
2022-12-12T16:22:43.827Z,82.58
2022-12-12T16:25:33.052Z,82.65
2022-12-12T16:28:25.861Z,82.80
2022-12-12T16:31:18.412Z,82.53
2022-12-12T16:34:04.079Z,82.34
2022-12-12T16:36:47.520Z,82.94
2022-12-12T16:39:31.009Z,82.92
2022-12-12T16:42:17.046Z,83.13
2022-12-12T16:45:00.925Z,83.60
2022-12-12T16:47:44.419Z,83.40
2022-12-12T16:50:27.832Z,84.32
2022-12-12T16:53:11.570Z,84.14
2022-12-12T16:55:55.362Z,84.14
2022-12-12T16:58:39.259Z,84.33
2022-12-12T17:01:22.838Z,84.58
2022-12-12T17:04:17.838Z,84.75
2022-12-12T17:07:01.228Z,84.41
2022-12-12T17:09:44.768Z,84.54
2022-12-12T17:17:06.584Z,84.45
2022-12-12T17:19:50.049Z,84.22
2022-12-12T17:22:33.488Z,83.41
2022-12-12T17:25:17.083Z,83.42
2022-12-12T17:28:01.186Z,82.97
2022-12-12T17:30:45.476Z,82.83
2022-12-12T17:33:28.976Z,83.20
2022-12-12T17:36:13.624Z,82.79
2022-12-12T17:38:57.096Z,83.05
2022-12-12T17:41:40.565Z,82.24
2022-12-12T17:44:24.071Z,82.77
2022-12-12T17:47:08.243Z,81.92
2022-12-12T17:49:51.761Z,82.17
2022-12-12T17:52:36.588Z,81.93
2022-12-12T17:55:51.728Z,82.18
2022-12-12T17:58:29.432Z,82.05
2022-12-12T18:01:17.924Z,81.85
2022-12-12T18:04:02.906Z,81.57
2022-12-12T18:06:46.590Z,81.01
2022-12-12T18:09:29.992Z,80.32
2022-12-12T18:12:13.444Z,79.48
2022-12-12T18:14:56.880Z,78.58
2022-12-12T18:17:40.758Z,78.79
2022-12-12T18:20:28.075Z,77.99
2022-12-12T18:23:14.618Z,77.76
2022-12-12T18:26:10.372Z,77.34
2022-12-12T18:29:00.848Z,77.03
2022-12-12T18:31:44.478Z,76.68
2022-12-12T18:34:28.042Z,76.87
2022-12-12T18:37:11.496Z,75.99
2022-12-12T18:39:55.096Z,75.75
2022-12-12T18:42:38.547Z,75.31
2022-12-12T18:45:23.997Z,76.33
2022-12-12T18:48:07.518Z,75.96
2022-12-12T18:50:51.038Z,75.47
2022-12-12T18:53:35.708Z,75.30
2022-12-12T18:56:26.177Z,74.53
2022-12-12T18:59:09.740Z,74.77
2022-12-12T19:01:53.348Z,75.37
2022-12-12T19:04:36.798Z,75.87
2022-12-12T19:07:20.405Z,75.79
2022-12-12T19:10:04.095Z,75.36
2022-12-12T19:12:47.573Z,75.78
2022-12-12T19:15:31.579Z,75.51
2022-12-12T19:18:15.092Z,75.53
2022-12-12T19:21:05.410Z,75.89
2022-12-12T19:23:51.394Z,75.56
2022-12-12T19:26:36.337Z,75.42
2022-12-12T19:29:20.876Z,76.18
2022-12-12T19:32:04.692Z,76.40
2022-12-12T19:34:48.205Z,76.40
2022-12-12T19:37:31.900Z,76.56
2022-12-12T19:40:16.375Z,76.88
2022-12-12T19:43:00.290Z,77.21
2022-12-12T19:45:44.028Z,77.00
2022-12-12T19:48:27.525Z,77.07
2022-12-12T19:51:18.703Z,77.79
2022-12-12T19:54:16.530Z,77.54
2022-12-12T19:57:00.499Z,77.90
2022-12-12T19:59:44.268Z,77.15
2022-12-12T20:02:27.845Z,77.69
2022-12-12T20:05:12.541Z,77.85
2022-12-12T20:07:57.198Z,78.23
2022-12-12T20:10:40.724Z,78.05
2022-12-12T20:13:24.216Z,77.26
2022-12-12T20:16:15.486Z,77.11
2022-12-12T20:18:59.392Z,76.76
2022-12-12T20:22:03.388Z,76.14
2022-12-12T20:24:47.405Z,77.37
2022-12-12T20:27:30.871Z,77.36
2022-12-12T20:30:14.603Z,77.14
2022-12-12T20:32:58.241Z,76.64
2022-12-12T20:35:41.688Z,75.71
2022-12-12T20:38:26.776Z,76.30
2022-12-12T20:41:18.053Z,76.78
2022-12-12T20:44:01.739Z,77.14
2022-12-12T20:46:47.137Z,77.57
2022-12-12T20:49:30.681Z,77.33
2022-12-12T20:52:14.323Z,76.79
2022-12-12T20:54:58.094Z,76.34
2022-12-12T20:57:41.983Z,75.82
2022-12-12T21:00:26.581Z,76.32
2022-12-12T21:03:10.099Z,75.44
2022-12-12T21:05:53.798Z,75.46
2022-12-12T21:08:37.282Z,76.25
2022-12-12T21:11:29.456Z,79.22
2022-12-12T21:14:13.043Z,79.13
2022-12-12T21:16:56.595Z,79.25
2022-12-12T21:19:40.088Z,79.88
2022-12-12T21:22:23.629Z,81.41
2022-12-12T21:25:07.624Z,80.47
2022-12-12T21:27:51.435Z,81.90
2022-12-12T21:30:35.026Z,82.94
2022-12-12T21:33:18.469Z,83.76
2022-12-12T21:36:08.836Z,84.45
2022-12-12T21:38:54.552Z,84.21
2022-12-12T21:41:41.539Z,84.39
2022-12-12T21:44:25.703Z,84.14
2022-12-12T21:47:09.273Z,84.61
2022-12-12T21:49:52.705Z,84.79
2022-12-12T21:52:36.445Z,84.54
2022-12-12T21:55:20.249Z,84.52
2022-12-12T21:58:03.763Z,84.31
2022-12-12T22:00:47.283Z,82.49
2022-12-12T22:03:30.832Z,81.55
2022-12-12T22:06:27.177Z,80.38
2022-12-12T22:09:12.513Z,80.30
2022-12-12T22:12:04.353Z,80.16
2022-12-12T22:14:48.129Z,79.29
2022-12-12T22:17:31.597Z,78.16
2022-12-12T22:20:15.046Z,76.30
2022-12-12T22:22:58.475Z,76.67
2022-12-12T22:25:42.246Z,76.50
2022-12-12T22:28:28.547Z,76.25
2022-12-12T22:31:12.054Z,75.46
2022-12-12T22:34:06.491Z,76.15
2022-12-12T22:36:50.753Z,75.78
2022-12-12T22:39:34.546Z,75.46
2022-12-12T22:42:18.278Z,75.40
2022-12-12T22:45:01.791Z,75.82
2022-12-12T22:47:45.337Z,74.55
2022-12-12T22:50:28.850Z,74.59
2022-12-12T22:53:13.353Z,75.34
2022-12-12T22:56:02.660Z,75.45
2022-12-12T22:58:46.177Z,75.02
2022-12-12T23:01:30.107Z,75.00
2022-12-12T23:04:15.093Z,75.35
2022-12-12T23:06:58.610Z,76.27
2022-12-12T23:09:52.475Z,76.42
2022-12-12T23:12:35.989Z,76.70
2022-12-12T23:15:19.403Z,76.07
2022-12-12T23:18:02.807Z,76.21
2022-12-12T23:20:46.476Z,75.92
2022-12-12T23:23:31.617Z,75.38
2022-12-12T23:26:19.645Z,75.35
2022-12-12T23:29:08.187Z,75.46
2022-12-12T23:31:51.745Z,75.82
2022-12-12T23:34:37.342Z,76.12
2022-12-12T23:37:20.893Z,75.84
2022-12-12T23:40:06.320Z,75.28
2022-12-12T23:42:49.747Z,76.30
2022-12-12T23:45:36.108Z,75.80
2022-12-12T23:48:19.535Z,75.98
2022-12-12T23:51:02.994Z,76.78
2022-12-12T23:53:46.401Z,75.38
2022-12-12T23:56:31.159Z,74.98
2022-12-12T23:59:18.245Z,75.65
